createdAt,value
2019-06-20T00:00:17.712Z,55.73
2019-06-20T00:01:17.717Z,55.34
2019-06-20T00:02:17.727Z,55.12
2019-06-20T00:03:17.885Z,55.34
2019-06-20T00:04:17.767Z,55.15
2019-06-20T00:05:17.787Z,53.97
2019-06-20T00:06:17.804Z,53.58
2019-06-20T00:07:17.825Z,53.70
2019-06-20T00:08:17.845Z,53.90
2019-06-20T00:09:17.877Z,53.90
2019-06-20T00:10:17.897Z,53.80
2019-06-20T00:11:17.905Z,54.57
2019-06-20T00:12:18.045Z,53.70
2019-06-20T00:13:17.946Z,54.96
2019-06-20T00:14:17.965Z,54.86
2019-06-20T00:15:17.981Z,55.05
2019-06-20T00:16:18.004Z,54.86
2019-06-20T00:17:18.025Z,54.86
2019-06-20T00:18:18.039Z,53.70
2019-06-20T00:19:18.061Z,53.03
2019-06-20T00:20:18.094Z,53.61
2019-06-20T00:21:18.101Z,54.77
2019-06-20T00:22:18.120Z,54.77
2019-06-20T00:23:18.139Z,54.38
2019-06-20T00:24:18.159Z,54.47
2019-06-20T00:25:18.180Z,53.90
2019-06-20T00:26:18.200Z,54.86
2019-06-20T00:27:18.217Z,55.05
2019-06-20T00:28:18.246Z,53.68
2019-06-20T00:29:18.268Z,52.81
2019-06-20T00:30:18.282Z,53.68
2019-06-20T00:31:18.297Z,53.49
2019-06-20T00:32:18.338Z,52.24
2019-06-20T00:33:18.339Z,53.39
2019-06-20T00:34:18.361Z,53.20
2019-06-20T00:35:18.381Z,53.20
2019-06-20T00:36:18.394Z,52.62
2019-06-20T00:37:18.422Z,53.30
2019-06-20T00:38:18.438Z,53.11
2019-06-20T00:39:18.464Z,53.11
2019-06-20T00:40:18.494Z,53.39
2019-06-20T00:41:18.492Z,53.58
2019-06-20T00:42:18.514Z,53.39
2019-06-20T00:43:18.583Z,53.68
2019-06-20T00:44:18.688Z,53.87
2019-06-20T00:45:18.583Z,53.30
2019-06-20T00:46:18.599Z,53.78
2019-06-20T00:47:18.617Z,53.78
2019-06-20T00:48:18.638Z,54.64
2019-06-20T00:49:18.656Z,54.55
2019-06-20T00:50:18.741Z,54.06
2019-06-20T00:51:18.690Z,53.39
2019-06-20T00:52:18.713Z,53.58
2019-06-20T00:53:18.827Z,53.87
2019-06-20T00:54:18.752Z,54.64
2019-06-20T00:55:18.858Z,53.97
2019-06-20T00:56:18.805Z,54.55
2019-06-20T00:57:18.807Z,53.68
2019-06-20T00:58:18.843Z,54.55
2019-06-20T00:59:18.855Z,54.55
2019-06-20T01:00:18.868Z,53.20
2019-06-20T01:01:18.889Z,53.58
2019-06-20T01:02:18.908Z,54.06
2019-06-20T01:03:18.927Z,53.68
2019-06-20T01:04:18.951Z,53.68
2019-06-20T01:05:18.972Z,54.83
2019-06-20T01:06:18.990Z,53.39
2019-06-20T01:07:19.005Z,53.97
2019-06-20T01:08:19.027Z,53.58
2019-06-20T01:09:19.044Z,53.87
2019-06-20T01:10:19.063Z,54.55
2019-06-20T01:11:19.085Z,54.83
2019-06-20T01:12:19.102Z,53.97
2019-06-20T01:13:32.635Z,53.58
2019-06-20T01:14:19.142Z,54.06
2019-06-20T01:15:19.163Z,54.16
2019-06-20T01:16:19.183Z,53.78
2019-06-20T01:17:19.334Z,53.87
2019-06-20T01:18:19.226Z,55.12
2019-06-20T01:19:19.247Z,55.02
2019-06-20T01:20:19.259Z,55.41
2019-06-20T01:21:19.280Z,55.32
2019-06-20T01:22:19.299Z,54.06
2019-06-20T01:23:19.318Z,54.04
2019-06-20T01:24:19.338Z,54.13
2019-06-20T01:25:19.361Z,53.08
2019-06-20T01:26:19.383Z,53.36
2019-06-20T01:27:19.402Z,53.08
2019-06-20T01:28:19.418Z,52.40
2019-06-20T01:29:19.434Z,52.79
2019-06-20T01:30:19.463Z,52.22
2019-06-20T01:31:19.480Z,52.79
2019-06-20T01:32:19.494Z,53.56
2019-06-20T01:33:19.515Z,53.66
2019-06-20T01:34:19.536Z,52.91
2019-06-20T01:35:19.561Z,53.46
2019-06-20T01:36:19.583Z,52.89
2019-06-20T01:37:19.593Z,52.12
2019-06-20T01:38:19.687Z,52.22
2019-06-20T01:39:19.638Z,52.60
2019-06-20T01:40:19.662Z,53.17
2019-06-20T01:41:19.675Z,52.31
2019-06-20T01:42:19.730Z,52.12
2019-06-20T01:43:19.710Z,52.79
2019-06-20T01:44:19.767Z,52.69
2019-06-20T01:45:19.750Z,53.01
2019-06-20T01:46:19.771Z,52.72
2019-06-20T01:47:19.798Z,53.30
2019-06-20T01:48:19.809Z,53.39
2019-06-20T01:49:19.840Z,53.68
2019-06-20T01:50:19.898Z,53.87
2019-06-20T01:51:19.873Z,53.20
2019-06-20T01:52:19.925Z,53.11
2019-06-20T01:53:19.914Z,53.87
2019-06-20T01:54:19.971Z,53.39
2019-06-20T01:55:19.981Z,53.68
2019-06-20T01:56:19.971Z,53.01
2019-06-20T01:57:19.985Z,53.78
2019-06-20T01:58:20.017Z,53.30
2019-06-20T01:59:20.030Z,52.91
2019-06-20T02:00:20.056Z,53.78
2019-06-20T02:01:20.066Z,53.97
2019-06-20T02:02:20.086Z,53.58
2019-06-20T02:03:20.104Z,54.74
2019-06-20T02:04:20.163Z,54.64
2019-06-20T02:05:20.148Z,54.74
2019-06-20T02:06:20.180Z,53.68
2019-06-20T02:07:20.185Z,52.79
2019-06-20T02:08:20.212Z,53.17
2019-06-20T02:09:20.226Z,52.98
2019-06-20T02:10:20.247Z,52.79
2019-06-20T02:11:20.266Z,52.40
2019-06-20T02:12:20.285Z,52.98
2019-06-20T02:13:20.301Z,52.31
2019-06-20T02:14:20.322Z,53.17
2019-06-20T02:15:20.353Z,53.17
2019-06-20T02:16:20.360Z,52.98
2019-06-20T02:17:20.378Z,53.36
2019-06-20T02:18:20.769Z,53.27
2019-06-20T02:19:20.417Z,53.08
2019-06-20T02:20:20.440Z,52.31
2019-06-20T02:21:20.456Z,52.40
2019-06-20T02:22:20.477Z,52.31
2019-06-20T02:23:20.502Z,52.69
2019-06-20T02:24:20.526Z,52.89
2019-06-20T02:25:20.532Z,52.98
2019-06-20T02:26:20.559Z,53.17
2019-06-20T02:27:20.571Z,53.17
2019-06-20T02:28:20.597Z,53.17
2019-06-20T02:29:20.610Z,53.17
2019-06-20T02:30:20.645Z,53.85
2019-06-20T02:31:20.661Z,53.72
2019-06-20T02:32:20.705Z,52.67
2019-06-20T02:33:20.807Z,53.94
2019-06-20T02:34:20.709Z,53.75
2019-06-20T02:35:20.734Z,53.56
2019-06-20T02:36:20.839Z,53.85
2019-06-20T02:37:20.768Z,53.94
2019-06-20T02:38:20.787Z,53.75
2019-06-20T02:39:20.821Z,54.52
2019-06-20T02:40:20.834Z,54.23
2019-06-20T02:41:20.844Z,53.94
2019-06-20T02:42:20.864Z,53.94
2019-06-20T02:43:20.890Z,52.79
2019-06-20T02:44:30.086Z,52.31
2019-06-20T02:45:20.923Z,53.66
2019-06-20T02:46:20.943Z,53.66
2019-06-20T02:47:20.962Z,52.95
2019-06-20T02:48:20.985Z,53.17
2019-06-20T02:49:21.024Z,52.76
2019-06-20T02:50:21.023Z,52.28
2019-06-20T02:51:21.130Z,52.95
2019-06-20T02:52:21.059Z,53.15
2019-06-20T02:53:21.081Z,52.86
2019-06-20T02:54:21.100Z,52.31
2019-06-20T02:55:21.126Z,52.86
2019-06-20T02:56:21.146Z,52.86
2019-06-20T02:57:21.158Z,53.15
2019-06-20T02:58:21.177Z,52.95
2019-06-20T02:59:21.193Z,52.57
2019-06-20T03:00:21.220Z,52.00
2019-06-20T03:01:21.234Z,52.76
2019-06-20T03:02:21.250Z,53.15
2019-06-20T03:03:21.285Z,52.09
2019-06-20T03:04:21.303Z,52.09
2019-06-20T03:05:21.309Z,52.76
2019-06-20T03:06:21.332Z,52.67
2019-06-20T03:07:21.350Z,52.48
2019-06-20T03:08:21.439Z,52.86
2019-06-20T03:09:21.391Z,52.67
2019-06-20T03:10:21.408Z,52.76
2019-06-20T03:11:21.462Z,53.15
2019-06-20T03:12:21.450Z,53.05
2019-06-20T03:13:21.467Z,52.76
2019-06-20T03:14:21.525Z,53.15
2019-06-20T03:15:21.507Z,53.82
2019-06-20T03:16:21.523Z,53.15
2019-06-20T03:17:21.546Z,53.46
2019-06-20T03:18:21.563Z,53.82
2019-06-20T03:19:21.584Z,53.72
2019-06-20T03:20:21.606Z,53.75
2019-06-20T03:21:21.627Z,53.46
2019-06-20T03:22:21.643Z,53.46
2019-06-20T03:23:21.658Z,53.46
2019-06-20T03:24:21.682Z,53.08
2019-06-20T03:25:21.696Z,53.46
2019-06-20T03:26:21.818Z,52.28
2019-06-20T03:27:21.750Z,52.22
2019-06-20T03:28:21.754Z,51.81
2019-06-20T03:29:21.771Z,51.04
2019-06-20T03:30:21.927Z,51.61
2019-06-20T03:31:21.812Z,52.00
2019-06-20T03:32:21.835Z,51.71
2019-06-20T03:33:21.860Z,52.48
2019-06-20T03:34:21.871Z,52.48
2019-06-20T03:35:21.903Z,52.38
2019-06-20T03:36:21.913Z,52.48
2019-06-20T03:37:21.956Z,53.15
2019-06-20T03:38:21.950Z,53.91
2019-06-20T03:39:21.968Z,53.44
2019-06-20T03:40:21.990Z,53.05
2019-06-20T03:41:22.004Z,53.15
2019-06-20T03:42:22.024Z,52.95
2019-06-20T03:43:22.043Z,53.34
2019-06-20T03:44:22.064Z,53.72
2019-06-20T03:45:22.083Z,53.53
2019-06-20T03:46:22.101Z,52.98
2019-06-20T03:47:22.119Z,53.63
2019-06-20T03:48:22.140Z,52.95
2019-06-20T03:49:22.161Z,53.24
2019-06-20T03:50:22.182Z,53.44
2019-06-20T03:51:22.196Z,53.56
2019-06-20T03:52:22.216Z,54.13
2019-06-20T03:53:22.235Z,54.01
2019-06-20T03:54:22.253Z,53.56
2019-06-20T03:55:22.285Z,54.52
2019-06-20T03:56:22.297Z,53.85
2019-06-20T03:57:22.315Z,54.04
2019-06-20T03:58:22.333Z,54.61
2019-06-20T03:59:22.362Z,54.61
2019-06-20T04:00:22.377Z,55.19
2019-06-20T04:01:22.388Z,54.04
2019-06-20T04:02:22.409Z,53.75
2019-06-20T04:03:22.437Z,54.13
2019-06-20T04:04:22.445Z,54.42
2019-06-20T04:05:22.473Z,55.00
2019-06-20T04:06:22.486Z,55.00
2019-06-20T04:07:22.510Z,55.29
2019-06-20T04:08:22.528Z,55.10
2019-06-20T04:09:22.542Z,55.38
2019-06-20T04:10:22.563Z,54.80
2019-06-20T04:11:22.610Z,54.71
2019-06-20T04:12:22.606Z,54.90
2019-06-20T04:13:22.781Z,55.38
2019-06-20T04:14:22.649Z,55.00
2019-06-20T04:15:22.671Z,54.61
2019-06-20T04:16:22.696Z,55.29
2019-06-20T04:17:22.699Z,54.90
2019-06-20T04:18:22.717Z,55.12
2019-06-20T04:19:22.736Z,54.45
2019-06-20T04:20:22.767Z,54.45
2019-06-20T04:21:22.828Z,55.02
2019-06-20T04:22:22.795Z,55.22
2019-06-20T04:23:22.853Z,54.74
2019-06-20T04:24:22.938Z,54.35
2019-06-20T04:25:22.858Z,54.06
2019-06-20T04:26:22.879Z,55.22
2019-06-20T04:27:22.895Z,54.55
2019-06-20T04:28:22.932Z,55.99
2019-06-20T04:29:22.951Z,55.99
2019-06-20T04:30:22.964Z,55.79
2019-06-20T04:31:22.979Z,55.89
2019-06-20T04:32:22.993Z,56.18
2019-06-20T04:33:23.011Z,55.41
2019-06-20T04:34:23.038Z,56.18
2019-06-20T04:35:23.118Z,57.23
2019-06-20T04:36:23.089Z,57.33
2019-06-20T04:37:23.104Z,56.68
2019-06-20T04:38:23.107Z,57.07
2019-06-20T04:39:23.156Z,57.45
2019-06-20T04:40:23.147Z,57.45
2019-06-20T04:41:23.169Z,56.68
2019-06-20T04:42:23.284Z,56.49
2019-06-20T04:43:23.207Z,58.61
2019-06-20T04:44:23.238Z,60.37
2019-06-20T04:45:34.515Z,61.71
2019-06-20T04:46:23.279Z,61.04
2019-06-20T04:47:23.285Z,61.84
2019-06-20T04:48:23.342Z,61.84
2019-06-20T04:49:23.362Z,63.31
2019-06-20T04:50:23.348Z,64.37
2019-06-20T04:51:23.371Z,65.72
2019-06-20T04:52:23.393Z,65.24
2019-06-20T04:53:23.423Z,65.94
2019-06-20T04:54:23.462Z,67.10
2019-06-20T04:55:23.449Z,67.19
2019-06-20T04:56:23.573Z,66.81
2019-06-20T04:57:23.488Z,68.87
2019-06-20T04:58:23.507Z,68.99
2019-06-20T04:59:23.536Z,70.28
2019-06-20T05:00:23.589Z,73.37
2019-06-20T05:01:23.578Z,73.27
2019-06-20T05:02:23.605Z,73.85
2019-06-20T05:03:23.740Z,72.69
2019-06-20T05:04:23.636Z,72.99
2019-06-20T05:05:23.653Z,74.47
2019-06-20T05:06:23.714Z,76.68
2019-06-20T05:07:23.873Z,76.15
2019-06-20T05:08:23.722Z,75.14
2019-06-20T05:09:23.785Z,73.85
2019-06-20T05:10:23.760Z,75.01
2019-06-20T05:11:23.781Z,73.27
2019-06-20T05:12:23.822Z,74.24
2019-06-20T05:13:23.823Z,74.24
2019-06-20T05:14:23.850Z,73.37
2019-06-20T05:15:23.868Z,74.05
2019-06-20T05:16:23.893Z,72.60
2019-06-20T05:17:24.067Z,71.89
2019-06-20T05:18:23.932Z,69.64
2019-06-20T05:19:23.954Z,69.77
2019-06-20T05:20:23.971Z,69.57
2019-06-20T05:21:23.995Z,71.79
2019-06-20T05:22:24.021Z,71.06
2019-06-20T05:23:24.049Z,71.92
2019-06-20T05:24:25.622Z,73.18
2019-06-20T05:25:24.077Z,73.95
2019-06-20T05:26:24.115Z,74.72
2019-06-20T05:27:24.122Z,74.66
2019-06-20T05:28:24.143Z,74.66
2019-06-20T05:29:24.168Z,72.89
2019-06-20T05:30:24.198Z,72.18
2019-06-20T05:31:24.210Z,71.50
2019-06-20T05:32:24.225Z,71.31
2019-06-20T05:33:24.249Z,70.06
2019-06-20T05:34:24.270Z,69.48
2019-06-20T05:35:24.290Z,70.38
2019-06-20T05:36:24.319Z,70.09
2019-06-20T05:37:24.339Z,70.86
2019-06-20T05:38:24.355Z,71.19
2019-06-20T05:39:24.376Z,73.06
2019-06-20T05:40:24.414Z,73.25
2019-06-20T05:41:24.420Z,74.99
2019-06-20T05:42:24.437Z,75.34
2019-06-20T05:43:24.498Z,73.50
2019-06-20T05:44:24.480Z,73.41
2019-06-20T05:45:24.504Z,71.86
2019-06-20T05:46:24.530Z,73.37
2019-06-20T05:47:24.543Z,72.60
2019-06-20T05:48:25.393Z,72.73
2019-06-20T05:49:24.596Z,73.06
2019-06-20T05:50:24.609Z,73.93
2019-06-20T05:51:24.633Z,73.44
2019-06-20T05:52:24.669Z,73.93
2019-06-20T05:53:24.682Z,72.96
2019-06-20T05:54:24.699Z,73.25
2019-06-20T05:55:24.726Z,73.44
2019-06-20T05:56:24.749Z,73.25
2019-06-20T05:57:24.762Z,73.77
2019-06-20T05:58:24.863Z,73.15
2019-06-20T05:59:25.563Z,73.44
2019-06-20T06:00:24.827Z,74.31
2019-06-20T06:01:24.857Z,75.78
2019-06-20T06:02:24.878Z,79.14
2019-06-20T06:03:24.892Z,81.73
2019-06-20T06:04:24.921Z,80.75
2019-06-20T06:05:24.936Z,81.62
2019-06-20T06:06:24.955Z,80.94
2019-06-20T06:07:24.987Z,80.87
2019-06-20T06:08:25.021Z,81.45
2019-06-20T06:09:25.030Z,81.45
2019-06-20T06:10:25.050Z,81.12
2019-06-20T06:11:25.072Z,81.46
2019-06-20T06:12:25.128Z,81.85
2019-06-20T06:13:25.117Z,81.17
2019-06-20T06:14:25.137Z,81.42
2019-06-20T06:15:25.170Z,81.13
2019-06-20T06:16:28.202Z,80.84
2019-06-20T06:17:25.217Z,80.90
2019-06-20T06:18:25.236Z,80.32
2019-06-20T06:19:25.253Z,80.84
2019-06-20T06:20:25.275Z,80.80
2019-06-20T06:21:25.300Z,80.80
2019-06-20T06:22:25.322Z,80.71
2019-06-20T06:23:25.344Z,80.80
2019-06-20T06:24:25.389Z,80.47
2019-06-20T06:25:25.391Z,81.38
2019-06-20T06:26:25.414Z,81.96
2019-06-20T06:27:25.432Z,80.51
2019-06-20T06:28:25.459Z,81.09
2019-06-20T06:29:25.542Z,81.19
2019-06-20T06:30:25.498Z,81.09
2019-06-20T06:31:25.527Z,81.05
2019-06-20T06:32:39.245Z,81.73
2019-06-20T06:33:25.563Z,80.57
2019-06-20T06:34:25.589Z,81.73
2019-06-20T06:35:25.605Z,81.19
2019-06-20T06:36:25.643Z,81.73
2019-06-20T06:37:25.651Z,81.67
2019-06-20T06:38:25.672Z,81.27
2019-06-20T06:39:25.698Z,81.07
2019-06-20T06:40:25.722Z,81.17
2019-06-20T06:41:25.735Z,80.63
2019-06-20T06:42:25.759Z,80.59
2019-06-20T06:43:25.792Z,80.40
2019-06-20T06:44:25.802Z,81.30
2019-06-20T06:45:25.833Z,81.30
2019-06-20T06:46:42.561Z,81.40
2019-06-20T06:47:25.874Z,81.21
2019-06-20T06:48:25.900Z,81.40
2019-06-20T06:49:25.916Z,81.65
2019-06-20T06:50:25.941Z,81.42
2019-06-20T06:51:25.961Z,81.65
2019-06-20T06:52:25.983Z,82.10
2019-06-20T06:53:26.028Z,81.13
2019-06-20T06:54:26.032Z,81.96
2019-06-20T06:55:27.590Z,81.77
2019-06-20T06:56:26.078Z,81.87
2019-06-20T06:57:26.100Z,81.82
2019-06-20T06:58:26.293Z,81.96
2019-06-20T06:59:26.176Z,82.15
2019-06-20T07:00:26.203Z,82.33
2019-06-20T07:01:26.184Z,81.27
2019-06-20T07:02:26.209Z,80.94
2019-06-20T07:03:26.243Z,81.27
2019-06-20T07:04:26.249Z,81.37
2019-06-20T07:05:26.274Z,81.15
2019-06-20T07:06:26.761Z,79.93
2019-06-20T07:07:26.327Z,79.64
2019-06-20T07:08:26.347Z,79.10
2019-06-20T07:09:26.362Z,79.49
2019-06-20T07:10:26.386Z,79.06
2019-06-20T07:11:26.412Z,79.93
2019-06-20T07:12:26.437Z,79.97
2019-06-20T07:13:26.461Z,79.58
2019-06-20T07:14:26.480Z,79.84
2019-06-20T07:15:26.500Z,79.55
2019-06-20T07:16:26.543Z,79.55
2019-06-20T07:17:26.544Z,80.22
2019-06-20T07:18:26.574Z,79.74
2019-06-20T07:19:26.598Z,79.84
2019-06-20T07:20:26.619Z,78.61
2019-06-20T07:21:26.636Z,78.42
2019-06-20T07:22:26.674Z,79.49
2019-06-20T07:23:26.736Z,78.42
2019-06-20T07:24:26.712Z,79.06
2019-06-20T07:25:26.739Z,79.30
2019-06-20T07:26:26.762Z,78.42
2019-06-20T07:27:26.833Z,79.04
2019-06-20T07:28:26.837Z,78.38
2019-06-20T07:29:26.825Z,78.38
2019-06-20T07:30:26.845Z,79.22
2019-06-20T07:31:26.874Z,79.80
2019-06-20T07:32:26.895Z,79.60
2019-06-20T07:33:26.935Z,79.85
2019-06-20T07:34:26.955Z,80.19
2019-06-20T07:35:26.967Z,80.28
2019-06-20T07:36:26.989Z,79.64
2019-06-20T07:37:27.168Z,79.39
2019-06-20T07:38:27.041Z,78.29
2019-06-20T07:39:27.059Z,78.29
2019-06-20T07:40:27.082Z,78.38
2019-06-20T07:41:27.191Z,79.06
2019-06-20T07:42:27.128Z,79.55
2019-06-20T07:43:27.149Z,79.00
2019-06-20T07:44:27.172Z,78.23
2019-06-20T07:45:27.684Z,77.94
2019-06-20T07:46:27.385Z,78.42
2019-06-20T07:47:27.246Z,77.94
2019-06-20T07:48:27.273Z,78.61
2019-06-20T07:49:27.289Z,78.31
2019-06-20T07:50:27.317Z,77.28
2019-06-20T07:51:27.353Z,76.05
2019-06-20T07:52:27.395Z,75.05
2019-06-20T07:53:27.394Z,73.99
2019-06-20T07:54:27.427Z,74.88
2019-06-20T07:55:27.442Z,74.76
2019-06-20T07:56:27.462Z,74.02
2019-06-20T07:57:27.482Z,73.30
2019-06-20T07:58:27.511Z,74.08
2019-06-20T07:59:27.523Z,73.89
2019-06-20T08:00:27.576Z,74.73
2019-06-20T08:01:27.575Z,74.63
2019-06-20T08:02:27.646Z,74.79
2019-06-20T08:03:27.964Z,74.63
2019-06-20T08:04:27.647Z,74.63
2019-06-20T08:05:27.679Z,75.51
2019-06-20T08:06:27.699Z,75.12
2019-06-20T08:07:27.725Z,74.98
2019-06-20T08:08:27.749Z,76.11
2019-06-20T08:09:43.826Z,75.85
2019-06-20T08:10:27.792Z,75.82
2019-06-20T08:11:27.826Z,76.21
2019-06-20T08:12:27.842Z,76.91
2019-06-20T08:13:27.872Z,78.19
2019-06-20T08:14:27.900Z,77.94
2019-06-20T08:15:27.917Z,77.75
2019-06-20T08:16:27.941Z,78.09
2019-06-20T08:17:35.184Z,78.00
2019-06-20T08:18:27.982Z,78.19
2019-06-20T08:19:28.009Z,77.90
2019-06-20T08:20:28.029Z,77.86
2019-06-20T08:21:28.049Z,78.89
2019-06-20T08:22:28.078Z,79.22
2019-06-20T08:23:28.103Z,77.96
2019-06-20T08:24:28.122Z,78.05
2019-06-20T08:25:28.162Z,78.00
2019-06-20T08:26:28.169Z,77.78
2019-06-20T08:27:28.193Z,79.91
2019-06-20T08:28:28.221Z,79.57
2019-06-20T08:29:28.239Z,78.99
2019-06-20T08:30:28.262Z,79.17
2019-06-20T08:31:28.292Z,79.22
2019-06-20T08:32:28.315Z,79.06
2019-06-20T08:33:28.463Z,78.50
2019-06-20T08:34:28.352Z,78.92
2019-06-20T08:35:28.374Z,78.34
2019-06-20T08:36:28.396Z,79.22
2019-06-20T08:37:28.423Z,78.19
2019-06-20T08:38:28.445Z,78.52
2019-06-20T08:39:29.557Z,78.42
2019-06-20T08:40:28.489Z,78.81
2019-06-20T08:41:28.515Z,77.80
2019-06-20T08:42:28.534Z,78.34
2019-06-20T08:43:28.552Z,78.09
2019-06-20T08:44:28.576Z,78.38
2019-06-20T08:45:28.595Z,77.36
2019-06-20T08:46:28.623Z,77.43
2019-06-20T08:47:28.643Z,77.08
2019-06-20T08:48:28.713Z,76.25
2019-06-20T08:49:28.693Z,75.70
2019-06-20T08:50:28.713Z,74.63
2019-06-20T08:51:28.740Z,74.60
2019-06-20T08:52:28.759Z,74.73
2019-06-20T08:53:28.781Z,73.60
2019-06-20T08:54:28.812Z,73.95
2019-06-20T08:55:28.829Z,74.34
2019-06-20T08:56:28.868Z,74.92
2019-06-20T08:57:28.889Z,73.69
2019-06-20T08:58:28.895Z,73.24
2019-06-20T08:59:28.921Z,72.66
2019-06-20T09:00:28.994Z,71.75
2019-06-20T09:01:29.033Z,72.55
2019-06-20T09:02:29.007Z,72.59
2019-06-20T09:03:29.015Z,73.27
2019-06-20T09:04:29.034Z,73.68
2019-06-20T09:05:30.691Z,74.43
2019-06-20T09:06:29.085Z,74.33
2019-06-20T09:07:29.105Z,74.81
2019-06-20T09:08:29.135Z,74.13
2019-06-20T09:09:29.187Z,75.26
2019-06-20T09:10:29.176Z,75.90
2019-06-20T09:11:29.198Z,75.94
2019-06-20T09:12:29.221Z,75.45
2019-06-20T09:13:29.246Z,74.37
2019-06-20T09:14:29.269Z,73.68
2019-06-20T09:15:29.292Z,73.97
2019-06-20T09:16:29.315Z,74.30
2019-06-20T09:17:29.333Z,73.08
2019-06-20T09:18:29.370Z,72.98
2019-06-20T09:19:29.383Z,73.18
2019-06-20T09:20:29.406Z,73.04
2019-06-20T09:21:29.466Z,73.52
2019-06-20T09:22:29.457Z,73.18
2019-06-20T09:23:29.476Z,73.27
2019-06-20T09:24:29.507Z,71.62
2019-06-20T09:25:29.529Z,72.45
2019-06-20T09:26:29.577Z,72.55
2019-06-20T09:27:29.598Z,71.48
2019-06-20T09:28:29.597Z,72.52
2019-06-20T09:29:41.382Z,72.42
2019-06-20T09:30:29.638Z,72.33
2019-06-20T09:31:29.661Z,72.17
2019-06-20T09:32:29.696Z,72.07
2019-06-20T09:33:29.712Z,72.36
2019-06-20T09:34:29.730Z,71.91
2019-06-20T09:35:29.765Z,72.14
2019-06-20T09:36:29.783Z,71.13
2019-06-20T09:37:29.802Z,71.26
2019-06-20T09:38:29.823Z,71.17
2019-06-20T09:39:29.847Z,71.98
2019-06-20T09:40:29.871Z,70.91
2019-06-20T09:41:29.893Z,71.30
2019-06-20T09:42:29.919Z,70.85
2019-06-20T09:43:29.941Z,70.10
2019-06-20T09:44:29.964Z,71.33
2019-06-20T09:45:29.994Z,72.13
2019-06-20T09:46:30.028Z,72.45
2019-06-20T09:47:30.033Z,71.88
2019-06-20T09:48:30.067Z,73.20
2019-06-20T09:49:30.081Z,73.24
2019-06-20T09:50:30.103Z,73.27
2019-06-20T09:51:30.133Z,72.59
2019-06-20T09:52:30.156Z,71.46
2019-06-20T09:53:30.174Z,70.97
2019-06-20T09:54:30.195Z,70.04
2019-06-20T09:55:30.219Z,69.81
2019-06-20T09:56:30.267Z,71.17
2019-06-20T09:57:30.272Z,70.65
2019-06-20T09:58:30.332Z,71.58
2019-06-20T09:59:30.320Z,71.10
2019-06-20T10:00:30.388Z,72.23
2019-06-20T10:01:30.371Z,73.10
2019-06-20T10:02:30.386Z,73.26
2019-06-20T10:03:30.407Z,74.13
2019-06-20T10:04:30.441Z,74.52
2019-06-20T10:05:30.480Z,75.07
2019-06-20T10:06:30.481Z,75.26
2019-06-20T10:07:30.513Z,74.77
2019-06-20T10:08:30.526Z,75.55
2019-06-20T10:09:30.546Z,75.20
2019-06-20T10:10:30.571Z,76.25
2019-06-20T10:11:30.604Z,76.00
2019-06-20T10:12:30.667Z,76.10
2019-06-20T10:13:32.799Z,75.71
2019-06-20T10:14:30.669Z,75.55
2019-06-20T10:15:30.707Z,75.07
2019-06-20T10:16:45.027Z,74.29
2019-06-20T10:17:30.738Z,74.58
2019-06-20T10:18:30.755Z,73.94
2019-06-20T10:19:30.779Z,74.39
2019-06-20T10:20:30.801Z,75.13
2019-06-20T10:21:30.823Z,75.51
2019-06-20T10:22:30.859Z,74.77
2019-06-20T10:23:30.896Z,74.13
2019-06-20T10:24:30.894Z,74.62
2019-06-20T10:25:30.913Z,74.56
2019-06-20T10:26:30.944Z,72.91
2019-06-20T10:27:30.959Z,73.33
2019-06-20T10:28:30.989Z,73.20
2019-06-20T10:29:31.007Z,72.52
2019-06-20T10:30:31.052Z,73.43
2019-06-20T10:31:31.147Z,73.39
2019-06-20T10:32:31.106Z,73.94
2019-06-20T10:33:31.108Z,74.23
2019-06-20T10:34:31.264Z,73.49
2019-06-20T10:35:31.148Z,73.49
2019-06-20T10:36:31.186Z,72.61
2019-06-20T10:37:31.196Z,72.81
2019-06-20T10:38:31.279Z,73.49
2019-06-20T10:39:31.266Z,73.30
2019-06-20T10:40:31.268Z,72.91
2019-06-20T10:41:31.385Z,74.13
2019-06-20T10:42:31.315Z,74.23
2019-06-20T10:43:31.334Z,73.58
2019-06-20T10:44:31.395Z,73.04
2019-06-20T10:45:31.380Z,72.69
2019-06-20T10:46:31.406Z,73.33
2019-06-20T10:47:35.026Z,72.59
2019-06-20T10:48:31.597Z,72.30
2019-06-20T10:49:31.468Z,71.33
2019-06-20T10:50:31.494Z,71.13
2019-06-20T10:51:31.514Z,73.04
2019-06-20T10:52:31.538Z,73.08
2019-06-20T10:53:31.567Z,71.81
2019-06-20T10:54:31.588Z,71.85
2019-06-20T10:55:31.617Z,71.46
2019-06-20T10:56:31.633Z,71.11
2019-06-20T10:57:31.673Z,69.81
2019-06-20T10:58:31.677Z,70.00
2019-06-20T10:59:31.768Z,70.04
2019-06-20T11:00:32.080Z,70.46
2019-06-20T11:01:31.746Z,70.07
2019-06-20T11:02:31.772Z,69.78
2019-06-20T11:03:31.799Z,69.91
2019-06-20T11:04:31.857Z,69.32
2019-06-20T11:05:31.849Z,68.48
2019-06-20T11:06:31.868Z,69.32
2019-06-20T11:07:31.889Z,70.10
2019-06-20T11:08:31.911Z,68.97
2019-06-20T11:09:31.956Z,69.00
2019-06-20T11:10:31.965Z,68.68
2019-06-20T11:11:31.985Z,67.86
2019-06-20T11:12:42.927Z,67.77
2019-06-20T11:13:32.028Z,67.64
2019-06-20T11:14:32.070Z,67.25
2019-06-20T11:15:32.075Z,67.22
2019-06-20T11:16:32.147Z,67.67
2019-06-20T11:17:32.143Z,67.32
2019-06-20T11:18:32.152Z,67.50
2019-06-20T11:19:32.172Z,65.78
2019-06-20T11:20:32.195Z,66.05
2019-06-20T11:21:32.220Z,64.94
2019-06-20T11:22:32.256Z,66.47
2019-06-20T11:23:32.277Z,67.02
2019-06-20T11:24:32.299Z,66.76
2019-06-20T11:25:32.316Z,66.11
2019-06-20T11:26:32.345Z,65.50
2019-06-20T11:27:32.380Z,65.11
2019-06-20T11:28:32.410Z,65.59
2019-06-20T11:29:32.418Z,66.17
2019-06-20T11:30:44.836Z,65.63
2019-06-20T11:31:32.462Z,65.26
2019-06-20T11:32:32.530Z,65.79
2019-06-20T11:33:32.524Z,67.35
2019-06-20T11:34:32.539Z,67.18
2019-06-20T11:35:32.567Z,67.50
2019-06-20T11:36:32.584Z,66.86
2019-06-20T11:37:32.614Z,68.71
2019-06-20T11:38:32.631Z,67.57
2019-06-20T11:39:32.656Z,66.66
2019-06-20T11:40:32.681Z,67.50
2019-06-20T11:41:32.707Z,66.83
2019-06-20T11:42:32.726Z,66.47
2019-06-20T11:43:34.647Z,65.26
2019-06-20T11:44:35.358Z,65.46
2019-06-20T11:45:35.446Z,65.53
2019-06-20T11:46:35.296Z,65.69
2019-06-20T11:47:34.912Z,65.59
2019-06-20T11:48:35.171Z,67.24
2019-06-20T11:49:34.560Z,67.47
2019-06-20T11:50:34.456Z,67.57
2019-06-20T11:51:34.365Z,67.60
2019-06-20T11:52:36.879Z,66.27
2019-06-20T11:53:33.687Z,66.96
2019-06-20T11:54:34.333Z,67.15
2019-06-20T11:55:33.041Z,66.86
2019-06-20T11:56:33.058Z,66.02
2019-06-20T11:57:33.080Z,67.08
2019-06-20T11:58:33.115Z,65.72
2019-06-20T11:59:33.127Z,65.66
2019-06-20T12:00:33.156Z,65.56
2019-06-20T12:01:33.335Z,65.88
2019-06-20T12:02:33.217Z,66.83
2019-06-20T12:03:33.233Z,65.46
2019-06-20T12:04:33.262Z,65.50
2019-06-20T12:05:33.266Z,66.47
2019-06-20T12:06:33.321Z,65.20
2019-06-20T12:07:33.342Z,65.04
2019-06-20T12:08:33.357Z,65.50
2019-06-20T12:09:36.510Z,64.84
2019-06-20T12:10:34.369Z,65.36
2019-06-20T12:11:34.207Z,63.90
2019-06-20T12:12:34.206Z,63.31
2019-06-20T12:13:33.505Z,63.67
2019-06-20T12:14:33.488Z,64.19
2019-06-20T12:15:33.511Z,65.59
2019-06-20T12:16:33.541Z,65.98
2019-06-20T12:17:33.553Z,66.56
2019-06-20T12:18:33.579Z,65.63
2019-06-20T12:19:33.606Z,63.77
2019-06-20T12:20:33.635Z,64.84
2019-06-20T12:21:33.652Z,64.68
2019-06-20T12:22:33.676Z,64.16
2019-06-20T12:23:33.716Z,63.18
2019-06-20T12:24:33.725Z,63.31
2019-06-20T12:25:33.742Z,63.34
2019-06-20T12:26:33.773Z,63.80
2019-06-20T12:27:33.797Z,64.97
2019-06-20T12:28:33.822Z,63.60
2019-06-20T12:29:33.899Z,64.09
2019-06-20T12:30:33.909Z,64.87
2019-06-20T12:31:33.890Z,65.85
2019-06-20T12:32:33.941Z,66.34
2019-06-20T12:33:33.943Z,66.89
2019-06-20T12:34:33.966Z,66.69
2019-06-20T12:35:34.000Z,66.31
2019-06-20T12:36:34.014Z,65.63
2019-06-20T12:37:34.180Z,66.99
2019-06-20T12:38:34.063Z,67.05
2019-06-20T12:39:34.104Z,67.54
2019-06-20T12:40:34.147Z,68.09
2019-06-20T12:41:34.131Z,67.70
2019-06-20T12:42:34.203Z,67.73
2019-06-20T12:43:34.192Z,67.25
2019-06-20T12:44:34.232Z,67.25
2019-06-20T12:45:34.227Z,68.12
2019-06-20T12:46:34.253Z,70.36
2019-06-20T12:47:34.290Z,69.68
2019-06-20T12:48:34.303Z,68.61
2019-06-20T12:49:34.334Z,68.12
2019-06-20T12:50:34.375Z,67.63
2019-06-20T12:51:34.380Z,66.93
2019-06-20T12:52:34.395Z,67.73